McGregor, Canada
Current Conditions -  °F | °C
As of 10:00 PM on Saturday 22 Nov 2014 (Local Time) from CYQG Reporting Station
Overcast Overcast  
Wind Chill: 38°   Ceiling: 3200
Heat Index: 45°   Visibility: 8mi
Dew Point: 41°   Wind: 15mph
Humidity: 87%   Direction: 210°SSW
Pressure: 29.95"   Gusts: NA
Location:  42.15°N, 82.97°W
Report Text: CYQG 230300Z 21013KT 8SM OVC032 07/05 A2995 RMK SC8 SLP147
Loading
Personal Weather Stations






























Interactive Weather Map New forecast layout! Learn more

10-Day Weather Forecast

Advertisements
Track Severe Weather on mobile